Aérodrome :
LOGIN :

S'inscrire | Disclaimer

   EN    FR    IT 

 










Légende :    VFR   VFR Marginal   IFR   IFR Intensif   IFR Très Intensif
Visi : 
Plafond : 
>= 8 km
>= 3000ft
5 à 8 km
1000 à 3000 ft
1500m à 5 km
500 à 1000 ft
800 à 1500m
200 à 500 ft
< 800m
< 200 ft
Symboles :   Orages  Brouillard  Fortes neiges  Fortes précipitations  Vent > 20 kt
SIGMETs :   Divers  Orages  Givrage  Turbulence  Onde Orograph.  Cendres Volcan.






- Altitude de l'aérodrome : 1411 ft
- Code IATA : GVA


LSGG - Genève Cointrin

DERNIER METAR :
  • 261450Z AUTO 25005KT 220V300 9999 BKN087 22/11 Q1017 NOSIG

METARs EXPIRÉS :
  • 261420Z AUTO VRB03KT 9999 SCT095 23/12 Q1017 NOSIG
  • 261350Z AUTO 08006KT 040V110 9999 FEW095 21/11 Q1018 NOSIG
  • 261320Z AUTO 11005KT 060V150 9999 BKN088 21/12 Q1018 NOSIG
  • 261250Z AUTO VRB03KT 9999 SCT086 22/11 Q1018 NOSIG
  • 261220Z AUTO 07005KT 9999 FEW091 21/11 Q1018 NOSIG
  • 261150Z AUTO 08005KT 9999 NCD 20/12 Q1019 NOSIG
  • 261120Z AUTO 08005KT 050V130 9999 BKN081 19/12 Q1019 NOSIG
  • 261050Z AUTO 10003KT 040V200 9999 BKN083 19/11 Q1019 NOSIG
  • 261020Z AUTO VRB02KT 9999 BKN096 18/12 Q1019 NOSIG
  • 260950Z AUTO VRB03KT 9999 BKN083 17/11 Q1019 NOSIG

TAF TAF LSGG
Valide du 26 à 15h jusqu'au 27 à 21h UTC


261425Z 2615/2721 23005KT 9999 BKN080 TX24/2615Z TN13/2705Z TX19/2705Z
TEMPO 2700/2708 SHRA SCT040TCU
PROB30 2704/2708 TSRA SCT030CB
ATIS : +41 22 417 40 81



MET'MAP, la Météo Aéronautique d'un coup d'oeil ! - Copyright ORBIFLY Décembre 2007 - Disclaimer

ORBIFLY MET'MAP TEAM :

Programmation & Développement : Alexandra Zaïnal
Sur une idée originale de : Baudouin d'Aumeries
Soutien technique & logistique : Manuel Goepfert
Assistance : Marc-Olivier Méhu




SOURCES & CREDITS :

   NOAA